createdAt,value
2022-11-01T00:00:06.779Z,11.95
2022-11-01T00:01:06.833Z,11.86
2022-11-01T00:02:07.161Z,11.95
2022-11-01T00:03:06.788Z,11.99
2022-11-01T00:04:06.840Z,11.91
2022-11-01T00:05:06.783Z,11.88
2022-11-01T00:06:11.380Z,11.93
2022-11-01T00:07:06.813Z,11.95
2022-11-01T00:08:07.545Z,11.88
2022-11-01T00:09:06.800Z,11.95
2022-11-01T00:10:07.053Z,11.83
2022-11-01T00:11:09.908Z,11.83
2022-11-01T00:12:06.809Z,11.85
2022-11-01T00:13:07.350Z,11.88
2022-11-01T00:14:06.810Z,11.73
2022-11-01T00:15:06.812Z,11.74
2022-11-01T00:16:06.827Z,11.76
2022-11-01T00:17:09.924Z,11.8
2022-11-01T00:18:06.813Z,11.76
2022-11-01T00:19:06.805Z,11.76
2022-11-01T00:20:06.863Z,11.81
2022-11-01T00:21:06.820Z,11.78
2022-11-01T00:22:09.705Z,11.76
2022-11-01T00:23:07.720Z,11.73
2022-11-01T00:24:06.825Z,11.63
2022-11-01T00:25:06.822Z,11.65
2022-11-01T00:26:06.843Z,11.53
2022-11-01T00:27:06.829Z,11.56
2022-11-01T00:28:10.436Z,11.55
2022-11-01T00:29:06.903Z,11.56
2022-11-01T00:30:06.857Z,11.59
2022-11-01T00:31:12.596Z,11.59
2022-11-01T00:32:06.832Z,11.62
2022-11-01T00:33:19.427Z,11.7
2022-11-01T00:34:06.873Z,11.77
2022-11-01T00:35:06.849Z,11.67
2022-11-01T00:36:06.887Z,11.7
2022-11-01T00:37:06.880Z,11.68
2022-11-01T00:38:07.270Z,11.78
2022-11-01T00:39:06.910Z,11.71
2022-11-01T00:40:06.845Z,11.67
2022-11-01T00:41:06.857Z,11.59
2022-11-01T00:42:06.862Z,11.6
2022-11-01T00:43:06.912Z,11.65
2022-11-01T00:44:09.911Z,11.62
2022-11-01T00:45:06.910Z,11.51
2022-11-01T00:46:06.863Z,11.62
2022-11-01T00:47:10.808Z,11.6
2022-11-01T00:48:07.338Z,11.65
2022-11-01T00:49:07.065Z,11.68
2022-11-01T00:50:06.872Z,11.62
2022-11-01T00:51:06.869Z,11.68
2022-11-01T00:52:06.936Z,11.71
2022-11-01T00:53:06.879Z,11.68
2022-11-01T00:54:06.951Z,11.65
2022-11-01T00:55:10.007Z,11.63
2022-11-01T00:56:06.877Z,11.63
2022-11-01T00:57:06.874Z,11.65
2022-11-01T00:58:07.703Z,11.52
2022-11-01T00:59:07.096Z,11.44
2022-11-01T01:00:06.920Z,11.48
2022-11-01T01:01:07.206Z,11.51
2022-11-01T01:02:07.637Z,11.48
2022-11-01T01:03:07.399Z,11.48
2022-11-01T01:04:06.919Z,11.4
2022-11-01T01:05:06.896Z,11.53
2022-11-01T01:06:09.967Z,11.49
2022-11-01T01:07:06.900Z,11.38
2022-11-01T01:08:06.956Z,11.44
2022-11-01T01:09:06.918Z,11.41
2022-11-01T01:10:06.891Z,11.38
2022-11-01T01:11:06.904Z,11.45
2022-11-01T01:12:06.748Z,11.45
2022-11-01T01:13:07.793Z,11.52
2022-11-01T01:14:06.922Z,11.51
2022-11-01T01:15:06.941Z,11.43
2022-11-01T01:16:06.921Z,11.62
2022-11-01T01:17:15.944Z,11.38
2022-11-01T01:18:07.749Z,11.45
2022-11-01T01:19:06.932Z,11.48
2022-11-01T01:20:06.920Z,11.51
2022-11-01T01:21:06.955Z,11.4
2022-11-01T01:22:06.909Z,11.44
2022-11-01T01:23:06.913Z,11.41
2022-11-01T01:24:06.995Z,11.4
2022-11-01T01:25:06.942Z,11.38
2022-11-01T01:26:06.926Z,11.44
2022-11-01T01:27:06.931Z,11.48
2022-11-01T01:28:11.491Z,11.41
2022-11-01T01:29:06.953Z,11.51
2022-11-01T01:30:06.935Z,11.51
2022-11-01T01:31:15.993Z,11.51
2022-11-01T01:32:06.936Z,11.52
2022-11-01T01:33:07.143Z,11.55
2022-11-01T01:34:06.953Z,11.56
2022-11-01T01:35:06.936Z,11.56
2022-11-01T01:36:06.938Z,11.49
2022-11-01T01:37:06.967Z,11.48
2022-11-01T01:38:07.910Z,11.48
2022-11-01T01:39:08.274Z,11.53
2022-11-01T01:40:07.001Z,11.52
2022-11-01T01:41:06.946Z,11.53
2022-11-01T01:42:06.956Z,11.48
2022-11-01T01:43:06.954Z,11.52
2022-11-01T01:44:08.140Z,11.51
2022-11-01T01:45:06.962Z,11.48
2022-11-01T01:46:06.960Z,11.44
2022-11-01T01:47:06.957Z,11.41
2022-11-01T01:48:07.708Z,11.53
2022-11-01T01:49:07.013Z,11.49
2022-11-01T01:50:10.002Z,11.53
2022-11-01T01:51:06.952Z,11.41
2022-11-01T01:52:06.963Z,11.44
2022-11-01T01:53:07.979Z,11.49
2022-11-01T01:54:06.997Z,11.49
2022-11-01T01:55:09.844Z,11.52
2022-11-01T01:56:06.979Z,11.45
2022-11-01T01:57:06.982Z,11.43
2022-11-01T01:58:06.968Z,11.44
2022-11-01T01:59:07.158Z,11.49
2022-11-01T02:00:09.722Z,11.4
2022-11-01T02:01:07.241Z,11.41
2022-11-01T02:02:07.322Z,11.44
2022-11-01T02:03:07.654Z,11.33
2022-11-01T02:04:07.007Z,11.3
2022-11-01T02:05:07.065Z,11.41
2022-11-01T02:06:07.032Z,11.41
2022-11-01T02:07:06.992Z,11.43
2022-11-01T02:08:07.525Z,11.34
2022-11-01T02:09:07.018Z,11.51
2022-11-01T02:10:07.202Z,11.35
2022-11-01T02:11:07.039Z,11.37
2022-11-01T02:12:06.989Z,11.41
2022-11-01T02:13:06.996Z,11.44
2022-11-01T02:14:07.020Z,11.45
2022-11-01T02:15:07.017Z,11.44
2022-11-01T02:16:10.069Z,11.37
2022-11-01T02:17:15.890Z,11.37
2022-11-01T02:18:07.559Z,11.48
2022-11-01T02:19:07.033Z,11.52
2022-11-01T02:20:07.028Z,11.51
2022-11-01T02:21:07.036Z,11.48
2022-11-01T02:22:10.119Z,11.45
2022-11-01T02:23:07.710Z,11.45
2022-11-01T02:24:07.049Z,11.56
2022-11-01T02:25:07.017Z,11.59
2022-11-01T02:26:07.030Z,11.52
2022-11-01T02:27:07.070Z,11.6
2022-11-01T02:28:07.025Z,11.58
2022-11-01T02:29:10.431Z,11.58
2022-11-01T02:30:07.031Z,11.58
2022-11-01T02:31:07.034Z,11.56
2022-11-01T02:32:07.050Z,11.53
2022-11-01T02:33:10.592Z,11.53
2022-11-01T02:34:07.034Z,11.55
2022-11-01T02:35:07.034Z,11.59
2022-11-01T02:36:07.043Z,11.52
2022-11-01T02:37:07.067Z,11.67
2022-11-01T02:38:10.098Z,11.62
2022-11-01T02:39:07.200Z,11.68
2022-11-01T02:40:07.043Z,11.63
2022-11-01T02:41:07.059Z,11.67
2022-11-01T02:42:07.055Z,11.63
2022-11-01T02:43:07.906Z,11.67
2022-11-01T02:44:09.966Z,11.56
2022-11-01T02:45:07.045Z,11.59
2022-11-01T02:46:07.062Z,11.67
2022-11-01T02:47:07.084Z,11.68
2022-11-01T02:48:07.068Z,11.59
2022-11-01T02:49:09.829Z,11.67
2022-11-01T02:50:07.080Z,11.65
2022-11-01T02:51:07.059Z,11.63
2022-11-01T02:52:07.069Z,11.6
2022-11-01T02:53:07.481Z,11.68
2022-11-01T02:54:07.066Z,11.63
2022-11-01T02:55:07.097Z,11.65
2022-11-01T02:56:07.065Z,11.62
2022-11-01T02:57:07.070Z,11.62
2022-11-01T02:58:07.978Z,11.67
2022-11-01T02:59:07.135Z,11.71
2022-11-01T03:00:10.184Z,11.67
2022-11-01T03:01:07.372Z,11.71
2022-11-01T03:02:07.455Z,11.62
2022-11-01T03:03:07.080Z,11.6
2022-11-01T03:04:07.127Z,11.68
2022-11-01T03:05:07.123Z,11.67
2022-11-01T03:06:07.113Z,11.63
2022-11-01T03:07:07.091Z,11.7
2022-11-01T03:08:07.908Z,11.6
2022-11-01T03:09:07.127Z,11.59
2022-11-01T03:10:07.133Z,11.58
2022-11-01T03:11:10.183Z,11.62
2022-11-01T03:12:07.104Z,11.7
2022-11-01T03:13:07.904Z,11.63
2022-11-01T03:14:07.093Z,11.62
2022-11-01T03:15:07.231Z,11.56
2022-11-01T03:16:07.104Z,11.6
2022-11-01T03:17:07.108Z,11.52
2022-11-01T03:18:07.118Z,11.48
2022-11-01T03:19:09.989Z,11.51
2022-11-01T03:20:07.140Z,11.45
2022-11-01T03:21:07.131Z,11.53
2022-11-01T03:22:10.134Z,11.55
2022-11-01T03:23:07.938Z,11.56
2022-11-01T03:24:07.117Z,11.56
2022-11-01T03:25:07.149Z,11.59
2022-11-01T03:26:07.119Z,11.58
2022-11-01T03:27:07.133Z,11.56
2022-11-01T03:28:07.153Z,11.55
2022-11-01T03:29:07.136Z,11.58
2022-11-01T03:30:07.338Z,11.53
2022-11-01T03:31:07.194Z,11.59
2022-11-01T03:32:07.133Z,11.58
2022-11-01T03:33:08.854Z,11.63
2022-11-01T03:34:07.134Z,11.63
2022-11-01T03:35:07.180Z,11.7
2022-11-01T03:36:11.893Z,11.62
2022-11-01T03:37:07.263Z,11.68
2022-11-01T03:38:07.149Z,11.74
2022-11-01T03:39:07.143Z,11.65
2022-11-01T03:40:07.164Z,11.71
2022-11-01T03:41:07.167Z,11.7
2022-11-01T03:42:07.147Z,11.63
2022-11-01T03:43:07.817Z,11.65
2022-11-01T03:44:10.282Z,11.62
2022-11-01T03:45:07.172Z,11.59
2022-11-01T03:46:07.150Z,11.58
2022-11-01T03:47:07.198Z,11.53
2022-11-01T03:48:07.876Z,11.6
2022-11-01T03:49:07.354Z,11.53
2022-11-01T03:50:07.186Z,11.55
2022-11-01T03:51:07.166Z,11.55
2022-11-01T03:52:07.161Z,11.56
2022-11-01T03:53:07.182Z,11.58
2022-11-01T03:54:07.189Z,11.63
2022-11-01T03:55:11.014Z,11.58
2022-11-01T03:56:07.456Z,11.63
2022-11-01T03:57:07.284Z,11.67
2022-11-01T03:58:08.113Z,11.68
2022-11-01T03:59:07.180Z,11.73
2022-11-01T04:00:07.215Z,11.68
2022-11-01T04:01:07.366Z,11.76
2022-11-01T04:02:07.839Z,11.68
2022-11-01T04:03:08.330Z,11.63
2022-11-01T04:04:07.184Z,11.6
2022-11-01T04:05:07.212Z,11.62
2022-11-01T04:06:10.219Z,11.67
2022-11-01T04:07:08.253Z,11.71
2022-11-01T04:08:07.210Z,11.7
2022-11-01T04:09:07.211Z,11.65
2022-11-01T04:10:07.233Z,11.71
2022-11-01T04:11:10.235Z,11.76
2022-11-01T04:12:07.193Z,11.67
2022-11-01T04:13:08.199Z,11.67
2022-11-01T04:14:07.203Z,11.74
2022-11-01T04:15:07.237Z,11.71
2022-11-01T04:16:07.216Z,11.62
2022-11-01T04:17:10.452Z,11.68
2022-11-01T04:18:07.207Z,11.63
2022-11-01T04:19:07.255Z,11.6
2022-11-01T04:20:07.287Z,11.65
2022-11-01T04:21:07.237Z,11.68
2022-11-01T04:22:09.989Z,11.68
2022-11-01T04:23:08.241Z,11.65
2022-11-01T04:24:07.221Z,11.73
2022-11-01T04:25:07.266Z,11.73
2022-11-01T04:26:07.324Z,11.81
2022-11-01T04:27:07.225Z,11.74
2022-11-01T04:28:07.220Z,11.71
2022-11-01T04:29:07.251Z,11.74
2022-11-01T04:30:07.240Z,11.86
2022-11-01T04:31:07.224Z,11.88
2022-11-01T04:32:07.225Z,11.89
2022-11-01T04:33:07.889Z,11.86
2022-11-01T04:34:07.243Z,11.81
2022-11-01T04:36:07.244Z,11.91
2022-11-01T04:37:07.355Z,11.96
2022-11-01T04:38:08.545Z,11.96
2022-11-01T04:39:10.228Z,11.97
2022-11-01T04:40:07.261Z,11.97
2022-11-01T04:41:07.248Z,11.95
2022-11-01T04:42:07.236Z,11.89
2022-11-01T04:43:07.253Z,11.8
2022-11-01T04:44:07.246Z,11.85
2022-11-01T04:45:07.279Z,11.88
2022-11-01T04:46:07.261Z,11.91
2022-11-01T04:47:07.258Z,11.86
2022-11-01T04:48:08.285Z,11.95
2022-11-01T04:49:10.249Z,11.93
2022-11-01T04:50:07.285Z,11.97
2022-11-01T04:51:07.307Z,11.89
2022-11-01T04:52:07.264Z,11.95
2022-11-01T04:53:08.118Z,11.89
2022-11-01T04:54:07.276Z,11.93
2022-11-01T04:55:07.312Z,11.91
2022-11-01T04:56:07.273Z,11.93
2022-11-01T04:57:07.265Z,11.89
2022-11-01T04:58:13.260Z,11.86
2022-11-01T04:59:07.268Z,11.85
2022-11-01T05:00:10.710Z,11.91
2022-11-01T05:01:07.623Z,11.91
2022-11-01T05:02:07.572Z,11.91
2022-11-01T05:03:08.670Z,11.81
2022-11-01T05:04:07.286Z,11.83
2022-11-01T05:05:10.416Z,11.83
2022-11-01T05:06:10.466Z,11.89
2022-11-01T05:07:07.288Z,11.95
2022-11-01T05:08:07.613Z,11.95
2022-11-01T05:09:07.299Z,11.91
2022-11-01T05:10:07.335Z,11.86
2022-11-01T05:11:07.356Z,11.91
2022-11-01T05:12:07.287Z,11.93
2022-11-01T05:13:08.286Z,11.95
2022-11-01T05:14:07.290Z,11.95
2022-11-01T05:15:07.310Z,11.97
2022-11-01T05:16:25.781Z,11.97
2022-11-01T05:17:07.298Z,12.02
2022-11-01T05:18:07.721Z,11.96
2022-11-01T05:19:07.303Z,11.97
2022-11-01T05:20:07.307Z,11.99
2022-11-01T05:21:07.344Z,12.05
2022-11-01T05:22:07.366Z,12.07
2022-11-01T05:23:08.368Z,12.05
2022-11-01T05:24:07.309Z,12.07
2022-11-01T05:25:07.320Z,12.1
2022-11-01T05:26:07.340Z,12.07
2022-11-01T05:27:10.073Z,12.07
2022-11-01T05:28:07.785Z,12.07
2022-11-01T05:29:33.757Z,11.95
2022-11-01T05:30:07.331Z,12.02
2022-11-01T05:31:07.387Z,12.02
2022-11-01T05:32:07.375Z,12.07
2022-11-01T05:33:07.333Z,12.05
2022-11-01T05:34:07.327Z,12.11
2022-11-01T05:35:07.326Z,12.02
2022-11-01T05:36:07.381Z,12.15
2022-11-01T05:37:07.339Z,12.1
2022-11-01T05:38:16.209Z,12.18
2022-11-01T05:39:07.340Z,12.21
2022-11-01T05:40:07.350Z,12.14
2022-11-01T05:41:07.643Z,12.2
2022-11-01T05:42:07.791Z,12.17
2022-11-01T05:43:08.288Z,12.17
2022-11-01T05:44:07.351Z,12.28
2022-11-01T05:45:07.340Z,12.25
2022-11-01T05:46:07.390Z,12.29
2022-11-01T05:47:07.353Z,12.11
2022-11-01T05:48:07.402Z,12.28
2022-11-01T05:49:08.468Z,12.2
2022-11-01T05:50:07.362Z,12.17
2022-11-01T05:51:07.378Z,12.3
2022-11-01T05:52:07.354Z,12.21
2022-11-01T05:53:07.941Z,12.14
2022-11-01T05:54:07.413Z,12.28
2022-11-01T05:55:07.368Z,12.21
2022-11-01T05:56:07.404Z,12.23
2022-11-01T05:57:07.365Z,12.3
2022-11-01T05:58:07.375Z,12.21
2022-11-01T05:59:07.367Z,12.2
2022-11-01T06:00:10.446Z,12.35
2022-11-01T06:01:07.438Z,12.28
2022-11-01T06:02:07.761Z,12.32
2022-11-01T06:03:08.559Z,12.25
2022-11-01T06:04:07.408Z,12.29
2022-11-01T06:05:08.029Z,12.32
2022-11-01T06:06:07.413Z,12.26
2022-11-01T06:07:07.374Z,12.33
2022-11-01T06:08:07.407Z,12.36
2022-11-01T06:09:07.558Z,12.36
2022-11-01T06:10:07.427Z,12.23
2022-11-01T06:11:11.016Z,12.3
2022-11-01T06:12:07.387Z,12.32
2022-11-01T06:13:08.335Z,12.32
2022-11-01T06:14:07.397Z,12.33
2022-11-01T06:15:07.396Z,12.35
2022-11-01T06:16:07.416Z,12.3
2022-11-01T06:17:07.410Z,12.29
2022-11-01T06:18:08.484Z,12.29
2022-11-01T06:19:07.443Z,12.37
2022-11-01T06:20:07.451Z,12.28
2022-11-01T06:21:07.429Z,12.32
2022-11-01T06:22:10.174Z,12.25
2022-11-01T06:23:07.409Z,12.29
2022-11-01T06:24:07.409Z,12.36
2022-11-01T06:25:07.415Z,12.29
2022-11-01T06:26:07.493Z,12.36
2022-11-01T06:27:12.820Z,12.4
2022-11-01T06:28:07.952Z,12.32
2022-11-01T06:29:07.421Z,12.29
2022-11-01T06:30:07.412Z,12.3
2022-11-01T06:31:07.535Z,12.3
2022-11-01T06:32:07.417Z,12.29
2022-11-01T06:33:11.178Z,12.39
2022-11-01T06:34:07.431Z,12.4
2022-11-01T06:35:07.422Z,12.39
2022-11-01T06:36:07.485Z,12.37
2022-11-01T06:37:07.428Z,12.36
2022-11-01T06:38:07.592Z,12.33
2022-11-01T06:39:07.497Z,12.36
2022-11-01T06:40:07.441Z,12.43
2022-11-01T06:41:07.457Z,12.3
2022-11-01T06:42:07.541Z,12.39
2022-11-01T06:43:10.479Z,12.39
2022-11-01T06:44:10.529Z,12.44
2022-11-01T06:45:07.451Z,12.45
2022-11-01T06:46:07.484Z,12.5
2022-11-01T06:47:07.445Z,12.39
2022-11-01T06:48:08.293Z,12.55
2022-11-01T06:49:13.472Z,12.33
2022-11-01T06:50:07.459Z,12.45
2022-11-01T06:51:07.485Z,12.53
2022-11-01T06:52:07.495Z,12.63
2022-11-01T06:53:07.579Z,12.44
2022-11-01T06:54:07.467Z,12.65
2022-11-01T06:55:07.464Z,12.68
2022-11-01T06:56:07.483Z,12.58
2022-11-01T06:57:07.470Z,12.62
2022-11-01T06:58:08.463Z,12.61
2022-11-01T06:59:07.486Z,12.63
2022-11-01T07:00:07.576Z,12.72
2022-11-01T07:01:07.827Z,12.66
2022-11-01T07:02:11.163Z,12.66
2022-11-01T07:03:07.470Z,12.66
2022-11-01T07:04:07.805Z,12.7
2022-11-01T07:05:07.483Z,12.8
2022-11-01T07:06:07.515Z,12.75
2022-11-01T07:07:07.313Z,12.76
2022-11-01T07:08:08.424Z,12.78
2022-11-01T07:09:07.480Z,12.81
2022-11-01T07:10:07.471Z,12.73
2022-11-01T07:11:07.515Z,12.78
2022-11-01T07:12:07.503Z,12.84
2022-11-01T07:13:07.485Z,12.83
2022-11-01T07:14:07.543Z,12.8
2022-11-01T07:15:07.320Z,12.86
2022-11-01T07:16:10.797Z,12.87
2022-11-01T07:17:07.495Z,12.88
2022-11-01T07:18:08.623Z,12.93
2022-11-01T07:19:07.494Z,12.95
2022-11-01T07:20:07.523Z,12.88
2022-11-01T07:21:07.514Z,12.91
2022-11-01T07:22:07.498Z,12.9
2022-11-01T07:23:08.477Z,12.91
2022-11-01T07:24:07.539Z,13.05
2022-11-01T07:25:07.351Z,13.01
2022-11-01T07:26:07.346Z,12.99
2022-11-01T07:27:10.267Z,13.05
2022-11-01T07:28:07.512Z,13.08
2022-11-01T07:29:07.520Z,13.05
2022-11-01T07:30:07.559Z,13.2
2022-11-01T07:31:07.513Z,13.19
2022-11-01T07:32:09.392Z,13.09
2022-11-01T07:33:08.511Z,13.16
2022-11-01T07:34:07.522Z,13.17
2022-11-01T07:35:07.525Z,13.19
2022-11-01T07:36:07.539Z,13.24
2022-11-01T07:37:07.589Z,13.27
2022-11-01T07:38:16.153Z,13.36
2022-11-01T07:39:07.571Z,13.46
2022-11-01T07:40:07.548Z,13.4
2022-11-01T07:41:07.531Z,13.47
2022-11-01T07:42:07.533Z,13.47
2022-11-01T07:43:10.874Z,13.46
2022-11-01T07:44:07.848Z,13.42
2022-11-01T07:45:13.043Z,13.4
2022-11-01T07:46:07.573Z,13.45
2022-11-01T07:47:07.571Z,13.47
2022-11-01T07:48:08.322Z,13.49
2022-11-01T07:49:07.539Z,13.58
2022-11-01T07:50:07.550Z,13.58
2022-11-01T07:52:07.813Z,13.65
2022-11-01T07:54:10.783Z,13.73
2022-11-01T07:55:07.679Z,13.75
2022-11-01T07:59:11.413Z,13.75
2022-11-01T08:00:07.567Z,13.75
2022-11-01T08:01:07.870Z,13.79
2022-11-01T08:02:11.955Z,13.8
2022-11-01T08:03:08.613Z,13.93
2022-11-01T08:04:07.621Z,13.86
2022-11-01T08:05:10.444Z,13.93
2022-11-01T08:06:09.198Z,14.01
2022-11-01T08:07:08.640Z,14.03
2022-11-01T08:08:08.553Z,14.05
2022-11-01T08:09:07.616Z,14.03
2022-11-01T08:10:07.581Z,14.03
2022-11-01T08:11:07.596Z,14.11
2022-11-01T08:12:07.425Z,14.13
2022-11-01T08:13:07.601Z,14.25
2022-11-01T08:14:14.589Z,14.13
2022-11-01T08:15:07.613Z,14.22
2022-11-01T08:16:08.691Z,14.22
2022-11-01T08:17:07.627Z,14.31
2022-11-01T08:18:08.758Z,14.3
2022-11-01T08:19:07.594Z,14.23
2022-11-01T08:20:07.685Z,14.31
2022-11-01T08:21:07.600Z,14.34
2022-11-01T08:22:07.605Z,14.36
2022-11-01T08:23:08.623Z,14.37
2022-11-01T08:24:07.606Z,14.4
2022-11-01T08:25:07.635Z,14.4
2022-11-01T08:26:07.611Z,14.53
2022-11-01T08:27:10.420Z,14.56
2022-11-01T08:28:07.667Z,14.55
2022-11-01T08:29:07.633Z,14.48
2022-11-01T08:30:07.618Z,14.51
2022-11-01T08:31:07.644Z,14.56
2022-11-01T08:32:07.611Z,14.59
2022-11-01T08:33:08.658Z,14.62
2022-11-01T08:34:07.679Z,14.55
2022-11-01T08:35:07.631Z,14.61
2022-11-01T08:36:07.752Z,14.66
2022-11-01T08:37:07.619Z,14.61
2022-11-01T08:38:10.462Z,14.73
2022-11-01T08:40:07.708Z,14.77
2022-11-01T08:41:07.640Z,14.71
2022-11-01T08:42:07.631Z,14.79
2022-11-01T08:43:08.668Z,14.82
2022-11-01T08:44:07.648Z,14.74
2022-11-01T08:45:07.636Z,14.78
2022-11-01T08:46:07.644Z,14.79
2022-11-01T08:47:07.662Z,14.74
2022-11-01T08:48:07.697Z,14.67
2022-11-01T08:49:10.755Z,14.79
2022-11-01T08:50:13.242Z,14.74
2022-11-01T08:51:07.669Z,14.85
2022-11-01T08:52:07.652Z,14.82
2022-11-01T08:53:08.039Z,14.89
2022-11-01T08:54:07.660Z,14.9
2022-11-01T08:55:07.688Z,15
2022-11-01T08:56:07.667Z,14.97
2022-11-01T08:57:07.656Z,15.02
2022-11-01T08:58:08.579Z,15.07
2022-11-01T08:59:08.013Z,15.14
2022-11-01T09:00:10.447Z,15.12
2022-11-01T09:01:07.902Z,15.14
2022-11-01T09:02:08.103Z,15.19
2022-11-01T09:03:07.712Z,15.14
2022-11-01T09:04:07.664Z,15.17
2022-11-01T09:05:07.787Z,15.18
2022-11-01T09:06:07.688Z,15.18
2022-11-01T09:07:07.681Z,15.19
2022-11-01T09:08:08.751Z,15.18
2022-11-01T09:09:07.677Z,15.32
2022-11-01T09:10:07.705Z,15.37
2022-11-01T09:11:10.566Z,15.37
2022-11-01T09:12:10.936Z,15.41
2022-11-01T09:13:08.649Z,15.48
2022-11-01T09:14:07.696Z,15.59
2022-11-01T09:15:07.729Z,15.6
2022-11-01T09:16:11.078Z,15.72
2022-11-01T09:17:07.721Z,15.72
2022-11-01T09:18:07.708Z,15.84
2022-11-01T09:19:10.494Z,15.88
2022-11-01T09:20:07.771Z,15.91
2022-11-01T09:21:07.740Z,16.13
2022-11-01T09:22:07.774Z,16.17
2022-11-01T09:23:08.667Z,16.36
2022-11-01T09:24:07.700Z,16.46
2022-11-01T09:25:07.731Z,16.47
2022-11-01T09:26:07.705Z,16.61
2022-11-01T09:27:07.708Z,16.64
2022-11-01T09:28:07.726Z,16.76
2022-11-01T09:29:07.719Z,16.77
2022-11-01T09:30:07.736Z,16.79
2022-11-01T09:31:25.066Z,16.95
2022-11-01T09:32:07.731Z,16.94
2022-11-01T09:33:08.288Z,16.97
2022-11-01T09:34:07.741Z,17.05
2022-11-01T09:35:07.825Z,17.01
2022-11-01T09:36:07.735Z,17.14
2022-11-01T09:37:08.046Z,17.14
2022-11-01T09:38:07.794Z,17.2
2022-11-01T09:39:07.733Z,17.13
2022-11-01T09:40:07.753Z,17.24
2022-11-01T09:41:07.747Z,17.14
2022-11-01T09:42:07.750Z,17.14
2022-11-01T09:43:11.941Z,17.09
2022-11-01T09:44:07.766Z,17.16
2022-11-01T09:45:07.765Z,17.14
2022-11-01T09:46:07.779Z,17.12
2022-11-01T09:47:07.761Z,17.07
2022-11-01T09:48:08.461Z,17.12
2022-11-01T09:49:07.752Z,17.19
2022-11-01T09:50:07.780Z,17.13
2022-11-01T09:51:07.623Z,17.13
2022-11-01T09:52:07.747Z,17.13
2022-11-01T09:53:07.783Z,17.14
2022-11-01T09:54:10.677Z,17.04
2022-11-01T09:55:07.787Z,17.22
2022-11-01T09:56:07.767Z,17.17
2022-11-01T09:57:07.763Z,17.22
2022-11-01T09:58:08.408Z,17.24
2022-11-01T09:59:08.890Z,17.2
2022-11-01T10:00:07.801Z,17.22
2022-11-01T10:01:08.097Z,17.31
2022-11-01T10:02:14.069Z,17.39
2022-11-01T10:03:07.966Z,17.47
2022-11-01T10:04:16.960Z,17.54
2022-11-01T10:05:11.980Z,17.72
2022-11-01T10:06:07.785Z,17.82
2022-11-01T10:07:07.807Z,17.8
2022-11-01T10:08:09.305Z,17.97
2022-11-01T10:09:07.785Z,17.91
2022-11-01T10:10:09.515Z,17.88
2022-11-01T10:11:08.528Z,17.88
2022-11-01T10:12:07.797Z,17.82
2022-11-01T10:13:07.791Z,17.8
2022-11-01T10:14:07.798Z,17.93
2022-11-01T10:15:08.198Z,17.82
2022-11-01T10:16:07.807Z,17.91
2022-11-01T10:17:07.808Z,17.87
2022-11-01T10:18:08.750Z,18.03
2022-11-01T10:19:07.802Z,17.91
2022-11-01T10:21:10.768Z,17.94
2022-11-01T10:22:07.809Z,18.05
2022-11-01T10:23:08.692Z,17.94
2022-11-01T10:24:07.881Z,17.97
2022-11-01T10:25:07.869Z,18.08
2022-11-01T10:26:07.848Z,18.05
2022-11-01T10:27:07.818Z,18.02
2022-11-01T10:28:07.823Z,18.05
2022-11-01T10:29:07.820Z,18
2022-11-01T10:30:07.849Z,18.05
2022-11-01T10:31:07.817Z,18.02
2022-11-01T10:32:10.601Z,18.05
2022-11-01T10:33:08.561Z,18.06
2022-11-01T10:34:07.822Z,17.95
2022-11-01T10:35:07.834Z,18
2022-11-01T10:36:07.836Z,18.03
2022-11-01T10:37:07.848Z,18.13
2022-11-01T10:38:59.442Z,18.15
2022-11-01T10:40:11.947Z,18.08
2022-11-01T10:41:02.525Z,18.18
2022-11-01T10:42:02.535Z,18.13
2022-11-01T10:43:02.532Z,18.3
2022-11-01T10:44:02.532Z,18.3
2022-11-01T10:45:02.524Z,18.3
2022-11-01T10:46:02.555Z,18.41
2022-11-01T10:47:02.518Z,18.36
2022-11-01T10:48:05.818Z,18.43
2022-11-01T10:49:02.532Z,18.52
2022-11-01T10:50:10.605Z,18.58
2022-11-01T10:51:02.571Z,18.58
2022-11-01T10:52:02.584Z,18.73
2022-11-01T10:53:02.598Z,18.74
2022-11-01T10:54:02.554Z,18.68
2022-11-01T10:55:02.549Z,18.68
2022-11-01T10:56:02.621Z,18.91
2022-11-01T10:57:02.579Z,18.92
2022-11-01T10:58:03.233Z,18.94
2022-11-01T10:59:05.675Z,19
2022-11-01T11:00:02.559Z,19.07
2022-11-01T11:01:02.976Z,19.22
2022-11-01T11:02:03.085Z,19.24
2022-11-01T11:03:02.444Z,19.26
2022-11-01T11:04:02.554Z,19.09
2022-11-01T11:05:02.571Z,19.22
2022-11-01T11:06:02.597Z,19.32
2022-11-01T11:07:03.626Z,19.45
2022-11-01T11:08:03.604Z,19.37
2022-11-01T11:09:02.596Z,19.42
2022-11-01T11:10:06.296Z,19.34
2022-11-01T11:11:02.623Z,19.45
2022-11-01T11:12:02.634Z,19.48
2022-11-01T11:13:03.956Z,19.42
2022-11-01T11:14:02.622Z,19.32
2022-11-01T11:15:02.604Z,19.41
2022-11-01T11:16:02.745Z,19.2
2022-11-01T11:17:02.633Z,19.48
2022-11-01T11:18:02.590Z,19.52
2022-11-01T11:19:02.609Z,19.48
2022-11-01T11:20:02.598Z,19.64
2022-11-01T11:21:06.536Z,19.7
2022-11-01T11:22:02.601Z,19.7
2022-11-01T11:23:03.630Z,19.72
2022-11-01T11:24:02.618Z,19.57
2022-11-01T11:25:02.641Z,19.66
2022-11-01T11:26:02.911Z,19.44
2022-11-01T11:27:02.605Z,19.59
2022-11-01T11:28:03.470Z,19.64
2022-11-01T11:29:02.616Z,19.74
2022-11-01T11:30:02.675Z,19.63
2022-11-01T11:31:02.630Z,19.81
2022-11-01T11:32:05.727Z,19.74
2022-11-01T11:33:02.618Z,19.77
2022-11-01T11:34:02.638Z,19.74
2022-11-01T11:35:02.634Z,19.75
2022-11-01T11:36:02.634Z,19.82
2022-11-01T11:37:02.678Z,19.85
2022-11-01T11:38:03.628Z,19.75
2022-11-01T11:39:02.799Z,19.77
2022-11-01T11:40:02.624Z,19.72
2022-11-01T11:41:02.666Z,19.77
2022-11-01T11:42:02.627Z,19.74
2022-11-01T11:43:04.000Z,19.82
2022-11-01T11:44:02.689Z,19.9
2022-11-01T11:45:02.969Z,19.77
2022-11-01T11:46:02.697Z,19.71
2022-11-01T11:47:02.660Z,19.7
2022-11-01T11:48:06.827Z,19.74
2022-11-01T11:49:02.640Z,19.66
2022-11-01T11:50:02.741Z,19.64
2022-11-01T11:51:02.681Z,19.77
2022-11-01T11:52:02.673Z,19.71
2022-11-01T11:53:02.639Z,19.81
2022-11-01T11:54:02.651Z,19.75
2022-11-01T11:55:02.760Z,19.89
2022-11-01T11:56:02.672Z,19.82
2022-11-01T11:57:02.649Z,19.67
2022-11-01T11:58:03.599Z,19.79
2022-11-01T11:59:11.191Z,19.89
2022-11-01T12:00:02.735Z,19.78
2022-11-01T12:01:06.230Z,19.84
2022-11-01T12:02:03.401Z,19.97
2022-11-01T12:03:04.539Z,20.03
2022-11-01T12:04:02.672Z,19.94
2022-11-01T12:05:05.651Z,19.81
2022-11-01T12:06:02.688Z,19.7
2022-11-01T12:07:02.689Z,19.82
2022-11-01T12:08:02.691Z,19.96
2022-11-01T12:09:07.683Z,19.99
2022-11-01T12:10:11.852Z,19.99
2022-11-01T12:11:03.145Z,19.96
2022-11-01T12:12:02.692Z,20.08
2022-11-01T12:13:03.505Z,20.17
2022-11-01T12:14:02.717Z,20.1
2022-11-01T12:15:02.735Z,20.08
2022-11-01T12:16:03.156Z,20.02
2022-11-01T12:17:02.754Z,19.77
2022-11-01T12:18:03.313Z,19.71
2022-11-01T12:19:02.691Z,19.72
2022-11-01T12:20:02.699Z,19.74
2022-11-01T12:21:15.931Z,19.63
2022-11-01T12:22:02.759Z,19.57
2022-11-01T12:23:02.719Z,19.64
2022-11-01T12:24:02.717Z,19.62
2022-11-01T12:25:02.704Z,19.57
2022-11-01T12:26:05.533Z,19.67
2022-11-01T12:27:02.719Z,19.72
2022-11-01T12:28:03.564Z,19.63
2022-11-01T12:29:02.705Z,19.6
2022-11-01T12:30:02.808Z,19.52
2022-11-01T12:31:05.598Z,19.38
2022-11-01T12:32:02.756Z,19.32
2022-11-01T12:33:03.000Z,19.3
2022-11-01T12:34:02.786Z,19.34
2022-11-01T12:35:02.743Z,19.32
2022-11-01T12:36:02.746Z,19.16
2022-11-01T12:37:05.041Z,19.2
2022-11-01T12:38:03.599Z,19.22
2022-11-01T12:39:02.737Z,19.22
2022-11-01T12:40:02.781Z,19.22
2022-11-01T12:41:07.809Z,19.22
2022-11-01T12:42:05.697Z,19.2
2022-11-01T12:43:03.303Z,19.44
2022-11-01T12:44:02.734Z,19.39
2022-11-01T12:45:02.787Z,19.32
2022-11-01T12:46:03.012Z,19.37
2022-11-01T12:47:02.966Z,19.42
2022-11-01T12:48:07.147Z,19.38
2022-11-01T12:49:02.774Z,19.63
2022-11-01T12:50:02.735Z,19.57
2022-11-01T12:51:02.742Z,19.53
2022-11-01T12:52:02.919Z,19.49
2022-11-01T13:31:44.423Z,19.39
2022-11-01T13:31:54.617Z,19.44
2022-11-01T13:32:54.338Z,19.57
2022-11-01T13:33:56.921Z,19.75
2022-11-01T13:34:54.456Z,19.82
2022-11-01T13:36:00.471Z,19.9
2022-11-01T13:36:54.582Z,19.99
2022-11-01T13:37:55.697Z,20.08
2022-11-01T13:38:54.465Z,20.19
2022-11-01T13:39:54.427Z,20.22
2022-11-01T13:40:54.640Z,20.24
2022-11-01T13:41:57.132Z,20.3